Time;durP1;ratioP1;P1;durP2;ratioP2;P2;SDS_P1;SDS_P2;PMS_P1;PMS_P2;Temp;Humidity;BMP_temperature;BMP_pressure;BME280_temperature;BME280_humidity;BME280_pressure;Samples;Min_cycle;Max_cycle;Signal;HPM_P1;HPM_P2
2023/12/22 00:00:12;;;;;;;;;;;;;;;2.90;77.41;93316.74;110386;1277;22361;-77
2023/12/22 00:03:00;;;;;;;;;;;;;;;2.96;77.36;93311.20;110308;1277;23194;-76
2023/12/22 00:05:28;;;;;;;;;;;;;;;3.01;77.26;93303.44;110372;1277;22345;-76
2023/12/22 00:07:56;;;;;;;;;;;;;;;3.06;77.36;93304.35;110370;1277;23030;-76
2023/12/22 00:10:24;;;;;;;;;;;;;;;3.10;77.41;93291.73;110368;1277;22390;-77
2023/12/22 00:12:52;;;;;;;;;;;;;;;3.11;77.99;93288.41;110365;1277;22335;-77
2023/12/22 00:15:20;;;;;;;;;;;;;;;3.12;78.03;93286.63;110371;1277;22452;-78
2023/12/22 00:17:48;;;;;;;;;;;;;;;3.15;78.36;93292.48;110322;1277;22375;-78
2023/12/22 00:20:16;;;;;;;;;;;;;;;3.17;78.35;93285.98;110304;1277;22501;-77
2023/12/22 00:22:45;;;;;;;;;;;;;;;3.18;78.57;93279.37;110365;1277;22406;-77
2023/12/22 00:25:13;;;;;;;;;;;;;;;3.18;78.37;93279.35;110365;1277;22447;-76
2023/12/22 00:27:41;;;;;;;;;;;;;;;3.19;78.56;93279.14;110381;1277;22439;-77
2023/12/22 00:30:09;;;;;;;;;;;;;;;3.19;78.43;93283.30;110379;1277;22344;-77
2023/12/22 00:32:37;;;;;;;;;;;;;;;3.18;78.66;93286.30;110338;1277;22546;-77
2023/12/22 00:35:06;;;;;;;;;;;;;;;3.12;79.09;93280.91;110344;1277;23244;-77
2023/12/22 00:37:34;;;;;;;;;;;;;;;3.08;79.16;93266.78;110362;1277;23024;-77
2023/12/22 00:40:05;;;;;;;;;;;;;;;3.02;79.74;93250.45;110370;1277;23154;-78
2023/12/22 00:42:33;;;;;;;;;;;;;;;2.96;79.61;93251.30;110291;1277;23129;-78
2023/12/22 00:45:01;;;;;;;;;;;;;;;2.92;79.66;93237.31;110361;1277;22331;-77
2023/12/22 00:47:30;;;;;;;;;;;;;;;2.92;79.72;93236.31;110358;1277;22335;-77
2023/12/22 00:49:58;;;;;;;;;;;;;;;2.93;79.93;93240.80;110374;1277;22434;-77
2023/12/22 00:52:26;;;;;;;;;;;;;;;2.98;79.91;93248.47;110387;1277;22344;-77
2023/12/22 00:54:54;;;;;;;;;;;;;;;3.01;79.84;93232.39;110375;1277;22307;-77
2023/12/22 00:57:22;;;;;;;;;;;;;;;3.02;79.94;93227.52;110353;1277;22397;-77
2023/12/22 00:59:50;;;;;;;;;;;;;;;3.03;80.27;93210.48;110350;1277;22333;-77
2023/12/22 01:02:18;;;;;;;;;;;;;;;3.00;80.44;93196.84;110370;1277;22316;-77
2023/12/22 01:04:46;;;;;;;;;;;;;;;2.98;80.19;93189.05;110366;1277;22392;-77
2023/12/22 01:07:15;;;;;;;;;;;;;;;2.96;80.22;93179.05;110396;1277;22394;-77
2023/12/22 01:09:43;;;;;;;;;;;;;;;2.91;80.36;93177.46;110385;1277;23142;-77
2023/12/22 01:12:11;;;;;;;;;;;;;;;2.85;80.66;93164.79;110293;1277;22436;-77
2023/12/22 01:14:39;;;;;;;;;;;;;;;2.94;80.97;93165.23;110303;1277;23124;-76
2023/12/22 01:17:08;;;;;;;;;;;;;;;3.16;80.78;93151.90;110366;1277;22469;-76
2023/12/22 01:19:36;;;;;;;;;;;;;;;3.33;80.44;93147.59;110355;1277;23146;-77
2023/12/22 01:22:04;;;;;;;;;;;;;;;3.49;80.15;93133.03;110397;1277;23202;-76
2023/12/22 01:24:32;;;;;;;;;;;;;;;3.66;79.68;93122.92;110366;1277;22379;-78
2023/12/22 01:27:00;;;;;;;;;;;;;;;3.89;78.90;93119.05;110360;1277;22378;-76
2023/12/22 01:29:29;;;;;;;;;;;;;;;3.98;78.69;93117.55;110304;1277;22427;-77
2023/12/22 01:31:57;;;;;;;;;;;;;;;4.07;78.26;93133.23;110376;1277;22482;-76
2023/12/22 01:34:25;;;;;;;;;;;;;;;4.16;78.18;93131.91;110385;1273;22356;-77
2023/12/22 01:36:53;;;;;;;;;;;;;;;4.17;78.13;93132.22;110355;1277;22362;-76
2023/12/22 01:39:21;;;;;;;;;;;;;;;4.16;78.06;93128.41;110348;1277;23402;-77
2023/12/22 01:41:50;;;;;;;;;;;;;;;4.15;78.21;93120.45;110344;1277;22363;-77
2023/12/22 01:44:18;;;;;;;;;;;;;;;4.10;78.20;93120.78;110242;1277;22339;-76
2023/12/22 01:46:46;;;;;;;;;;;;;;;4.16;78.41;93101.80;110366;1277;22385;-77
2023/12/22 01:49:14;;;;;;;;;;;;;;;4.21;78.44;93086.66;110351;1277;22321;-77
2023/12/22 01:51:43;;;;;;;;;;;;;;;4.32;78.21;93081.41;110371;1277;22326;-76
2023/12/22 01:54:13;;;;;;;;;;;;;;;4.42;78.22;93086.83;110378;1277;22342;-76
2023/12/22 01:56:42;;;;;;;;;;;;;;;4.43;77.96;93088.50;110374;1277;22451;-77
2023/12/22 01:59:11;;;;;;;;;;;;;;;4.42;78.00;93080.87;110286;1277;22401;-77
2023/12/22 02:01:39;;;;;;;;;;;;;;;4.41;78.14;93074.64;110355;1277;22337;-76
2023/12/22 02:04:07;;;;;;;;;;;;;;;4.43;78.67;93087.29;110356;1277;22330;-76
2023/12/22 02:06:36;;;;;;;;;;;;;;;4.56;79.14;93064.73;110345;1277;22485;-78
2023/12/22 02:09:04;;;;;;;;;;;;;;;4.60;79.26;93049.45;110356;1277;22324;-77
2023/12/22 02:11:32;;;;;;;;;;;;;;;4.61;78.94;93017.73;110352;1277;23261;-77
2023/12/22 02:14:00;;;;;;;;;;;;;;;4.65;78.32;93019.33;110353;1277;22436;-77
2023/12/22 02:16:28;;;;;;;;;;;;;;;4.67;77.97;93008.94;110223;1278;22421;-77
2023/12/22 02:18:59;;;;;;;;;;;;;;;4.66;77.69;93005.33;110342;1277;22397;-77
2023/12/22 02:21:27;;;;;;;;;;;;;;;4.63;77.41;93004.73;110364;1277;22254;-78
2023/12/22 02:23:55;;;;;;;;;;;;;;;4.64;77.34;93005.95;110349;1277;22341;-78
2023/12/22 02:26:36;;;;;;;;;;;;;;;4.64;77.32;93001.05;110362;1277;22387;-76
2023/12/22 02:29:05;;;;;;;;;;;;;;;4.63;77.20;92998.30;110346;1277;22260;-77
2023/12/22 02:31:37;;;;;;;;;;;;;;;4.65;76.81;93000.66;110364;1277;22409;-76
2023/12/22 02:34:07;;;;;;;;;;;;;;;4.72;76.28;93008.92;110352;1277;22261;-78
2023/12/22 02:36:36;;;;;;;;;;;;;;;4.77;76.35;93006.80;110350;1277;22904;-77
2023/12/22 02:39:05;;;;;;;;;;;;;;;4.76;76.80;92979.52;110359;1277;22330;-76
2023/12/22 02:41:34;;;;;;;;;;;;;;;4.73;77.35;92965.73;110336;1277;22441;-76
2023/12/22 02:44:02;;;;;;;;;;;;;;;4.62;77.71;92949.08;110373;1277;22332;-77
2023/12/22 02:46:30;;;;;;;;;;;;;;;4.53;77.80;92941.90;110339;1277;22386;-77
2023/12/22 02:48:58;;;;;;;;;;;;;;;4.44;77.91;92942.78;110195;1277;22366;-76
2023/12/22 02:51:26;;;;;;;;;;;;;;;4.39;77.80;92948.02;110346;1277;22352;-76
2023/12/22 02:53:54;;;;;;;;;;;;;;;4.33;77.82;92960.78;110336;1277;22343;-77
2023/12/22 02:56:23;;;;;;;;;;;;;;;4.41;77.08;92990.41;110349;1277;22490;-76
2023/12/22 02:58:51;;;;;;;;;;;;;;;4.42;77.31;93011.10;110367;1277;22353;-76
2023/12/22 03:01:19;;;;;;;;;;;;;;;4.39;77.55;93029.99;110320;1277;22411;-77
2023/12/22 03:03:47;;;;;;;;;;;;;;;4.42;77.67;93060.20;110344;1277;22354;-76
2023/12/22 03:06:15;;;;;;;;;;;;;;;4.46;77.79;93070.29;110338;1277;22335;-77
2023/12/22 03:08:43;;;;;;;;;;;;;;;4.49;78.37;93074.55;110346;1277;22371;-77
2023/12/22 03:11:11;;;;;;;;;;;;;;;4.50;78.62;93073.98;110315;1277;22386;-76
2023/12/22 03:13:39;;;;;;;;;;;;;;;4.50;78.62;93077.83;110245;1277;22378;-77
2023/12/22 03:16:10;;;;;;;;;;;;;;;4.48;78.83;93068.30;110360;1277;23137;-77
2023/12/22 03:18:39;;;;;;;;;;;;;;;4.43;79.15;93070.24;110277;1277;22276;-77
2023/12/22 03:21:07;;;;;;;;;;;;;;;4.40;79.01;93074.19;110354;1277;22341;-77
2023/12/22 03:23:35;;;;;;;;;;;;;;;4.37;79.05;93078.30;110324;1277;22387;-77
2023/12/22 03:26:04;;;;;;;;;;;;;;;4.28;79.71;93086.05;110331;1277;22353;-77
2023/12/22 03:28:33;;;;;;;;;;;;;;;4.22;80.04;93104.74;110321;1277;22383;-78
2023/12/22 03:31:01;;;;;;;;;;;;;;;4.11;80.57;93125.27;110320;1277;22438;-78
2023/12/22 03:33:29;;;;;;;;;;;;;;;3.99;80.94;93134.88;110333;1277;22323;-76
2023/12/22 03:35:57;;;;;;;;;;;;;;;3.78;81.59;93159.91;110315;1277;22443;-78
2023/12/22 03:38:25;;;;;;;;;;;;;;;3.66;81.91;93169.52;110339;1277;22399;-76
2023/12/22 03:40:53;;;;;;;;;;;;;;;3.37;82.83;93160.31;110302;1274;22618;-76
2023/12/22 03:43:22;;;;;;;;;;;;;;;3.00;83.83;93146.30;110320;1277;22374;-77
2023/12/22 03:45:50;;;;;;;;;;;;;;;2.71;85.67;93140.85;110321;1277;23175;-77
2023/12/22 03:48:18;;;;;;;;;;;;;;;2.54;86.11;93136.46;110330;1277;22346;-76
2023/12/22 03:50:46;;;;;;;;;;;;;;;2.45;86.06;93125.80;110328;1271;22336;-77
2023/12/22 03:53:14;;;;;;;;;;;;;;;2.35;86.36;93102.65;110331;1277;22481;-76
2023/12/22 03:55:42;;;;;;;;;;;;;;;2.31;86.54;93102.23;110266;1277;22340;-76
2023/12/22 03:58:10;;;;;;;;;;;;;;;2.30;86.80;93089.61;110303;1277;22402;-76
2023/12/22 04:00:38;;;;;;;;;;;;;;;2.30;86.69;93078.85;110300;1277;23186;-76
2023/12/22 04:03:06;;;;;;;;;;;;;;;2.33;86.65;93063.84;110288;1277;22336;-75
2023/12/22 04:05:34;;;;;;;;;;;;;;;2.38;86.77;93056.42;110332;1277;22393;-76
2023/12/22 04:08:03;;;;;;;;;;;;;;;2.43;86.52;93060.79;110303;1277;22410;-76
2023/12/22 04:10:31;;;;;;;;;;;;;;;2.50;86.28;93067.35;110309;1277;23080;-76
2023/12/22 04:12:59;;;;;;;;;;;;;;;2.56;86.02;93072.72;110253;1277;22411;-76
2023/12/22 04:15:27;;;;;;;;;;;;;;;2.60;85.59;93088.41;110314;1277;22417;-76
2023/12/22 04:17:55;;;;;;;;;;;;;;;2.62;85.72;93078.48;110311;1277;22362;-76
2023/12/22 04:20:24;;;;;;;;;;;;;;;2.60;85.85;93084.06;110309;1277;22391;-76
2023/12/22 04:22:52;;;;;;;;;;;;;;;2.60;85.74;93072.26;110313;1277;22405;-76
2023/12/22 04:25:21;;;;;;;;;;;;;;;2.63;85.59;93057.11;110216;1277;22999;-76
2023/12/22 04:27:50;;;;;;;;;;;;;;;2.63;85.11;93045.83;110322;1277;22393;-77
2023/12/22 04:30:18;;;;;;;;;;;;;;;2.70;84.91;93043.70;110312;1277;22399;-76
2023/12/22 04:32:46;;;;;;;;;;;;;;;2.76;84.79;93040.03;110323;1277;22999;-76
2023/12/22 04:35:14;;;;;;;;;;;;;;;2.83;84.45;93028.20;110308;1277;22419;-76
2023/12/22 04:37:42;;;;;;;;;;;;;;;2.91;83.62;92987.69;110332;1277;22336;-78
2023/12/22 04:40:10;;;;;;;;;;;;;;;2.97;82.95;92975.70;110314;1277;22347;-77
2023/12/22 04:42:38;;;;;;;;;;;;;;;3.09;81.58;92953.42;110328;1277;22462;-76
2023/12/22 04:45:06;;;;;;;;;;;;;;;3.15;81.09;92964.52;109873;1277;578693;-76
2023/12/22 04:47:34;;;;;;;;;;;;;;;3.18;79.97;92970.50;110305;1277;22502;-77
2023/12/22 04:50:04;;;;;;;;;;;;;;;3.25;79.12;92958.12;110309;1277;22360;-78
2023/12/22 04:52:32;;;;;;;;;;;;;;;3.27;77.98;92969.85;110331;1277;22337;-77
2023/12/22 04:55:00;;;;;;;;;;;;;;;3.28;77.53;92985.80;110321;1277;22526;-77
2023/12/22 04:57:28;;;;;;;;;;;;;;;3.31;77.78;92986.77;110284;1277;23260;-77
2023/12/22 04:59:56;;;;;;;;;;;;;;;3.30;77.72;92975.52;110315;1277;23211;-78
2023/12/22 05:02:24;;;;;;;;;;;;;;;3.32;77.57;92973.87;110319;1277;22361;-76
2023/12/22 05:04:52;;;;;;;;;;;;;;;3.33;77.43;92987.55;110311;1277;22408;-78
2023/12/22 05:07:20;;;;;;;;;;;;;;;3.36;77.47;93003.29;110303;1277;22355;-77
2023/12/22 05:09:48;;;;;;;;;;;;;;;3.39;77.33;93000.92;110305;1277;22441;-77
2023/12/22 05:12:16;;;;;;;;;;;;;;;3.42;77.70;93002.39;110311;1277;22387;-78
2023/12/22 05:14:44;;;;;;;;;;;;;;;3.39;77.86;92995.17;110330;1277;22328;-77
2023/12/22 05:17:12;;;;;;;;;;;;;;;3.37;77.65;93004.96;110279;1277;22386;-77
2023/12/22 05:19:40;;;;;;;;;;;;;;;3.46;77.00;93007.80;110301;1277;23040;-79
2023/12/22 05:22:08;;;;;;;;;;;;;;;3.41;77.77;93000.33;110300;1277;23091;-79
2023/12/22 05:24:37;;;;;;;;;;;;;;;3.37;77.91;93001.84;110310;1277;22374;-78
2023/12/22 05:27:05;;;;;;;;;;;;;;;3.34;77.99;93021.08;110254;1277;22332;-77
2023/12/22 05:29:33;;;;;;;;;;;;;;;3.34;78.09;93064.52;110315;1277;23157;-78
2023/12/22 05:32:01;;;;;;;;;;;;;;;3.32;78.10;93086.65;110260;1277;22427;-77
2023/12/22 05:34:30;;;;;;;;;;;;;;;3.34;77.83;93091.60;110288;1277;22326;-78
2023/12/22 05:36:58;;;;;;;;;;;;;;;3.35;78.40;93098.70;110308;1277;22398;-78
2023/12/22 05:39:27;;;;;;;;;;;;;;;3.33;78.73;93096.35;110304;1273;22344;-78
2023/12/22 05:41:55;;;;;;;;;;;;;;;3.30;78.82;93101.97;110302;1277;22352;-77
2023/12/22 05:44:24;;;;;;;;;;;;;;;3.27;79.29;93117.73;110285;1277;22380;-77
2023/12/22 05:46:52;;;;;;;;;;;;;;;3.26;79.31;93127.81;110284;1277;23131;-79
2023/12/22 05:49:20;;;;;;;;;;;;;;;3.25;79.39;93136.86;110280;1277;22434;-77
2023/12/22 05:51:49;;;;;;;;;;;;;;;3.21;79.62;93136.47;110306;1277;22383;-77
2023/12/22 05:54:19;;;;;;;;;;;;;;;3.20;79.59;93147.97;110310;1277;22343;-76
2023/12/22 05:56:48;;;;;;;;;;;;;;;3.18;79.57;93148.02;110314;1277;23104;-78
2023/12/22 05:59:16;;;;;;;;;;;;;;;3.16;79.60;93136.29;110300;1277;23130;-77
2023/12/22 06:01:44;;;;;;;;;;;;;;;3.12;79.85;93149.41;110318;1277;22342;-77
2023/12/22 06:04:12;;;;;;;;;;;;;;;3.08;80.44;93155.96;110297;1277;22337;-77
2023/12/22 06:06:40;;;;;;;;;;;;;;;3.08;80.49;93155.48;110318;1277;22404;-77
2023/12/22 06:09:11;;;;;;;;;;;;;;;3.04;80.22;93148.78;110291;1277;22386;-77
2023/12/22 06:11:40;;;;;;;;;;;;;;;3.03;80.28;93140.99;110298;1277;22224;-77
2023/12/22 06:14:08;;;;;;;;;;;;;;;3.00;80.47;93121.45;110303;1277;22447;-78
2023/12/22 06:16:36;;;;;;;;;;;;;;;2.96;80.64;93136.00;110297;1277;23151;-77
2023/12/22 06:19:04;;;;;;;;;;;;;;;2.93;79.86;93143.55;110221;1278;23309;-78
2023/12/22 06:21:32;;;;;;;;;;;;;;;2.92;78.66;93159.19;110310;1277;22866;-77
2023/12/22 06:24:00;;;;;;;;;;;;;;;2.97;77.48;93161.50;110310;1277;22445;-77
2023/12/22 06:26:28;;;;;;;;;;;;;;;2.97;77.56;93173.64;110309;1277;23111;-79
2023/12/22 06:28:56;;;;;;;;;;;;;;;2.95;77.61;93178.58;110290;1277;22404;-78
2023/12/22 06:31:24;;;;;;;;;;;;;;;2.93;76.89;93186.09;110293;1277;22392;-78
2023/12/22 06:33:53;;;;;;;;;;;;;;;2.93;77.16;93181.41;110282;1277;22541;-77
2023/12/22 06:36:21;;;;;;;;;;;;;;;2.92;76.89;93179.70;110297;1277;22351;-77
2023/12/22 06:38:50;;;;;;;;;;;;;;;2.89;77.08;93185.68;110313;1277;22338;-78
2023/12/22 06:41:23;;;;;;;;;;;;;;;2.87;75.89;93203.79;110293;1277;22389;-78
2023/12/22 06:43:56;;;;;;;;;;;;;;;2.86;75.62;93208.68;110282;1268;22499;-78
2023/12/22 06:46:27;;;;;;;;;;;;;;;2.84;74.37;93216.36;110287;1277;22354;-77
2023/12/22 06:48:56;;;;;;;;;;;;;;;2.83;74.28;93215.52;110312;1277;22219;-78
2023/12/22 06:51:30;;;;;;;;;;;;;;;2.79;75.17;93222.92;110286;1277;22564;-76
2023/12/22 06:54:01;;;;;;;;;;;;;;;2.73;75.29;93217.36;110305;1277;22246;-78
2023/12/22 06:56:33;;;;;;;;;;;;;;;2.68;75.06;93215.07;110325;1266;22924;-78
2023/12/22 06:59:02;;;;;;;;;;;;;;;2.66;74.81;93229.33;110264;1277;22315;-77
2023/12/22 07:01:31;;;;;;;;;;;;;;;2.64;74.27;93231.48;110312;1277;22420;-78
2023/12/22 07:04:01;;;;;;;;;;;;;;;2.67;73.62;93230.38;110308;1277;22330;-78
2023/12/22 07:06:30;;;;;;;;;;;;;;;2.71;73.58;93228.55;110271;1277;22352;-78
2023/12/22 07:09:11;;;;;;;;;;;;;;;2.72;72.83;93233.38;110261;1277;22384;-76
2023/12/22 07:11:39;;;;;;;;;;;;;;;2.71;72.49;93235.30;110295;1277;22232;-78
2023/12/22 07:14:07;;;;;;;;;;;;;;;2.71;72.97;93245.55;110289;1277;22448;-78
2023/12/22 07:16:36;;;;;;;;;;;;;;;2.67;72.90;93264.22;110300;1277;22441;-78
2023/12/22 07:19:04;;;;;;;;;;;;;;;2.66;72.83;93273.29;110315;1277;22331;-77
2023/12/22 07:21:32;;;;;;;;;;;;;;;2.64;73.41;93283.55;110332;1277;22327;-76
2023/12/22 07:24:00;;;;;;;;;;;;;;;2.62;73.43;93286.92;110275;1277;23209;-78
2023/12/22 07:26:29;;;;;;;;;;;;;;;2.59;73.52;93289.91;110329;1277;22350;-78
2023/12/22 07:28:58;;;;;;;;;;;;;;;2.57;73.00;93303.69;110290;1277;23220;-77
2023/12/22 07:31:26;;;;;;;;;;;;;;;2.58;72.30;93288.20;110298;1277;22968;-77
2023/12/22 07:33:56;;;;;;;;;;;;;;;2.58;71.99;93274.15;110324;1277;22349;-77
2023/12/22 07:36:24;;;;;;;;;;;;;;;2.56;71.93;93285.31;110310;1274;22394;-76
2023/12/22 07:38:52;;;;;;;;;;;;;;;2.56;71.75;93275.60;110302;1277;22313;-76
2023/12/22 07:41:20;;;;;;;;;;;;;;;2.53;71.39;93278.64;110315;1277;22340;-77
2023/12/22 07:43:48;;;;;;;;;;;;;;;2.51;71.20;93288.58;110285;1277;22381;-77
2023/12/22 07:46:19;;;;;;;;;;;;;;;2.54;70.65;93288.32;110318;1277;22345;-78
2023/12/22 07:48:47;;;;;;;;;;;;;;;2.57;70.84;93292.94;110306;1277;22430;-77
2023/12/22 07:51:16;;;;;;;;;;;;;;;2.58;70.71;93300.55;110307;1277;22430;-76
2023/12/22 07:53:44;;;;;;;;;;;;;;;2.60;71.03;93314.73;110301;1277;22390;-77
2023/12/22 07:56:12;;;;;;;;;;;;;;;2.58;71.00;93323.27;110321;1277;22337;-78
2023/12/22 07:58:40;;;;;;;;;;;;;;;2.59;71.02;93334.35;110303;1277;22452;-77
2023/12/22 08:01:08;;;;;;;;;;;;;;;2.62;71.23;93336.02;110298;1277;22416;-76
2023/12/22 08:03:37;;;;;;;;;;;;;;;2.64;71.91;93342.56;110314;1277;22322;-76
2023/12/22 08:06:05;;;;;;;;;;;;;;;2.66;72.18;93334.36;110325;1277;23131;-77
2023/12/22 08:08:36;;;;;;;;;;;;;;;2.66;71.45;93335.75;110300;1277;22253;-77
2023/12/22 08:11:04;;;;;;;;;;;;;;;2.69;71.39;93339.86;110315;1277;22403;-76
2023/12/22 08:13:32;;;;;;;;;;;;;;;2.68;72.03;93333.29;110300;1277;23120;-77
2023/12/22 08:16:00;;;;;;;;;;;;;;;2.72;72.00;93347.59;110292;1277;22347;-76
2023/12/22 08:18:28;;;;;;;;;;;;;;;2.74;72.27;93340.58;110319;1277;22412;-76
2023/12/22 08:20:56;;;;;;;;;;;;;;;2.85;71.71;93340.66;110307;1277;22409;-76
2023/12/22 08:23:25;;;;;;;;;;;;;;;3.02;71.51;93335.37;110309;1277;22385;-77
2023/12/22 08:25:58;;;;;;;;;;;;;;;3.14;70.44;93332.45;110325;1277;22284;-77
2023/12/22 08:28:26;;;;;;;;;;;;;;;3.15;71.02;93341.46;110325;1277;22376;-77
2023/12/22 08:30:54;;;;;;;;;;;;;;;3.23;70.91;93342.27;110323;1277;22505;-77
2023/12/22 08:33:23;;;;;;;;;;;;;;;3.33;70.48;93344.45;110317;1277;22324;-76
2023/12/22 08:35:51;;;;;;;;;;;;;;;3.37;71.08;93345.03;110319;1277;22332;-77
2023/12/22 08:38:19;;;;;;;;;;;;;;;3.39;71.12;93344.11;110303;1277;22432;-77
2023/12/22 08:40:47;;;;;;;;;;;;;;;3.46;72.07;93341.66;110286;1277;22396;-76
2023/12/22 08:43:15;;;;;;;;;;;;;;;3.51;71.61;93338.21;110301;1277;22412;-76
2023/12/22 08:45:43;;;;;;;;;;;;;;;3.51;71.76;93347.77;110301;1277;22393;-77
2023/12/22 08:48:11;;;;;;;;;;;;;;;3.57;71.86;93347.45;110282;1277;22527;-76
2023/12/22 08:50:39;;;;;;;;;;;;;;;3.69;71.67;93344.67;110315;1277;22394;-76
2023/12/22 08:53:07;;;;;;;;;;;;;;;3.84;71.06;93344.23;110316;1277;23125;-76
2023/12/22 08:55:36;;;;;;;;;;;;;;;3.96;68.21;93340.94;110319;1277;23044;-76
2023/12/22 08:58:04;;;;;;;;;;;;;;;3.97;67.11;93353.77;110343;1277;22342;-76
2023/12/22 09:00:32;;;;;;;;;;;;;;;3.91;67.44;93359.70;110313;1277;22442;-77
2023/12/22 09:03:02;;;;;;;;;;;;;;;3.84;67.20;93361.45;110344;1277;22339;-78
2023/12/22 09:05:32;;;;;;;;;;;;;;;3.68;67.16;93357.91;110195;1277;22393;-77
2023/12/22 09:08:00;;;;;;;;;;;;;;;3.53;67.28;93360.92;110323;1277;22562;-77
2023/12/22 09:10:28;;;;;;;;;;;;;;;3.45;67.32;93352.98;110332;1271;23222;-77
2023/12/22 09:12:56;;;;;;;;;;;;;;;3.44;67.58;93359.45;110324;1277;22398;-77
2023/12/22 09:15:26;;;;;;;;;;;;;;;3.59;67.37;93361.30;110309;1277;22441;-77
2023/12/22 09:17:55;;;;;;;;;;;;;;;3.58;66.32;93359.39;110301;1277;22314;-76
2023/12/22 09:20:23;;;;;;;;;;;;;;;3.60;66.95;93357.61;110296;1277;22328;-77
2023/12/22 09:22:52;;;;;;;;;;;;;;;3.60;65.87;93354.12;110311;1277;22478;-77
2023/12/22 09:25:20;;;;;;;;;;;;;;;3.57;66.43;93351.61;110311;1277;22331;-77
2023/12/22 09:27:48;;;;;;;;;;;;;;;3.52;65.47;93357.15;110325;1277;23051;-77
2023/12/22 09:30:16;;;;;;;;;;;;;;;3.38;66.12;93360.31;110313;1277;22456;-77
2023/12/22 09:32:44;;;;;;;;;;;;;;;3.37;66.55;93359.65;110330;1277;22341;-77
2023/12/22 09:35:12;;;;;;;;;;;;;;;3.34;65.97;93352.95;110330;1277;22468;-76
2023/12/22 09:37:40;;;;;;;;;;;;;;;3.32;66.11;93368.97;110346;1260;23143;-78
2023/12/22 09:40:10;;;;;;;;;;;;;;;3.29;65.65;93358.98;110350;1277;22352;-79
2023/12/22 09:42:40;;;;;;;;;;;;;;;3.22;65.48;93359.15;110334;1277;22461;-76
2023/12/22 09:45:10;;;;;;;;;;;;;;;3.33;65.59;93352.27;110319;1277;22246;-77
2023/12/22 09:47:41;;;;;;;;;;;;;;;3.58;64.91;93358.38;110347;1277;23061;-77
2023/12/22 09:50:09;;;;;;;;;;;;;;;3.77;64.14;93363.91;110354;1277;22264;-77
2023/12/22 09:52:38;;;;;;;;;;;;;;;3.98;63.80;93347.29;110336;1277;22347;-76
2023/12/22 09:55:07;;;;;;;;;;;;;;;4.26;63.24;93353.23;110299;1278;23110;-77
2023/12/22 09:57:35;;;;;;;;;;;;;;;4.49;62.02;93347.67;110296;1277;22391;-77
2023/12/22 10:00:06;;;;;;;;;;;;;;;4.70;60.99;93345.79;110351;1277;22388;-77
2023/12/22 10:02:35;;;;;;;;;;;;;;;4.87;59.86;93342.27;110335;1277;22345;-77
2023/12/22 10:05:03;;;;;;;;;;;;;;;4.97;59.17;93342.45;110315;1277;22389;-77
2023/12/22 10:07:33;;;;;;;;;;;;;;;4.93;59.68;93348.52;110314;1277;22342;-77
2023/12/22 10:10:03;;;;;;;;;;;;;;;4.84;59.58;93344.64;110333;1277;22394;-78
2023/12/22 10:12:33;;;;;;;;;;;;;;;4.40;59.95;93346.74;110335;1277;22325;-77
2023/12/22 10:15:03;;;;;;;;;;;;;;;4.20;61.47;93345.95;110339;1277;22254;-78
2023/12/22 10:17:31;;;;;;;;;;;;;;;3.99;61.30;93350.08;110347;1277;22408;-77
2023/12/22 10:20:00;;;;;;;;;;;;;;;3.71;61.99;93358.17;110334;1277;22324;-77
2023/12/22 10:22:28;;;;;;;;;;;;;;;3.75;63.22;93352.14;110343;1277;23082;-77
2023/12/22 10:24:56;;;;;;;;;;;;;;;4.23;62.58;93349.68;110302;1277;22436;-77
2023/12/22 10:27:24;;;;;;;;;;;;;;;4.49;62.04;93344.88;110350;1277;22314;-76
2023/12/22 10:29:56;;;;;;;;;;;;;;;4.81;60.89;93338.13;110317;1277;23192;-77
2023/12/22 10:32:24;;;;;;;;;;;;;;;4.98;60.21;93330.77;110341;1277;22501;-77
2023/12/22 10:34:52;;;;;;;;;;;;;;;5.23;59.22;93332.52;110331;1277;22409;-77
2023/12/22 10:37:23;;;;;;;;;;;;;;;5.53;58.46;93332.00;110333;1277;23055;-77
2023/12/22 10:39:52;;;;;;;;;;;;;;;5.72;57.74;93343.20;110323;1277;22324;-76
2023/12/22 10:42:21;;;;;;;;;;;;;;;5.73;57.74;93345.24;110337;1277;22451;-77
2023/12/22 10:44:49;;;;;;;;;;;;;;;6.00;57.44;93348.29;110339;1277;23130;-78
2023/12/22 10:47:21;;;;;;;;;;;;;;;6.05;56.86;93341.83;110347;1277;22311;-79
2023/12/22 10:49:49;;;;;;;;;;;;;;;6.01;56.58;93340.07;110325;1277;22359;-77
2023/12/22 10:52:18;;;;;;;;;;;;;;;5.56;57.72;93347.44;110344;1277;22409;-77
2023/12/22 10:54:47;;;;;;;;;;;;;;;5.48;58.15;93352.06;110338;1277;22393;-77
2023/12/22 10:57:22;;;;;;;;;;;;;;;5.78;57.84;93345.59;110311;1277;22409;-77
2023/12/22 10:59:50;;;;;;;;;;;;;;;5.98;56.59;93345.59;110323;1277;22318;-77
2023/12/22 11:02:27;;;;;;;;;;;;;;;6.09;56.13;93336.62;110307;1277;22290;-77
2023/12/22 11:05:07;;;;;;;;;;;;;;;6.08;57.00;93335.80;110332;1277;22241;-77
2023/12/22 11:07:37;;;;;;;;;;;;;;;6.01;55.69;93339.17;110337;1277;22268;-78
2023/12/22 11:10:06;;;;;;;;;;;;;;;6.22;55.86;93342.06;110323;1277;22359;-77
2023/12/22 11:12:36;;;;;;;;;;;;;;;6.43;55.01;93334.27;110314;1277;22366;-77
2023/12/22 11:15:07;;;;;;;;;;;;;;;6.54;54.68;93344.70;110311;1278;23146;-77
2023/12/22 11:17:40;;;;;;;;;;;;;;;6.34;54.14;93341.83;110339;1277;22266;-78
2023/12/22 11:20:09;;;;;;;;;;;;;;;6.45;54.64;93328.44;110363;1277;22988;-77
2023/12/22 11:22:38;;;;;;;;;;;;;;;6.74;54.61;93323.64;110324;1277;23198;-77
2023/12/22 11:25:08;;;;;;;;;;;;;;;6.95;53.96;93314.54;110325;1277;22404;-77
2023/12/22 11:27:37;;;;;;;;;;;;;;;7.03;53.64;93308.80;110372;1277;22403;-77
2023/12/22 11:30:08;;;;;;;;;;;;;;;7.34;53.44;93305.24;110325;1277;22495;-78
2023/12/22 11:32:36;;;;;;;;;;;;;;;7.33;51.68;93303.86;110346;1277;22469;-77
2023/12/22 11:35:05;;;;;;;;;;;;;;;7.46;51.54;93304.20;110321;1277;22383;-77
2023/12/22 11:37:35;;;;;;;;;;;;;;;7.49;52.06;93302.14;110341;1277;22384;-79
2023/12/22 11:40:03;;;;;;;;;;;;;;;7.40;51.11;93311.30;110319;1278;22338;-78
2023/12/22 11:42:36;;;;;;;;;;;;;;;6.97;51.18;93309.39;110332;1277;22572;-77
2023/12/22 11:45:05;;;;;;;;;;;;;;;6.75;51.66;93318.34;110345;1277;22447;-77
2023/12/22 11:47:34;;;;;;;;;;;;;;;6.67;52.02;93324.09;110334;1277;22371;-78
2023/12/22 11:50:02;;;;;;;;;;;;;;;6.53;52.58;93328.67;110340;1277;22482;-77
2023/12/22 11:52:32;;;;;;;;;;;;;;;6.51;53.02;93335.19;110357;1277;23580;-76
2023/12/22 11:55:00;;;;;;;;;;;;;;;6.33;53.83;93347.23;110348;1270;22357;-77
2023/12/22 11:57:28;;;;;;;;;;;;;;;6.00;54.16;93348.65;110360;1277;22362;-77
2023/12/22 11:59:57;;;;;;;;;;;;;;;5.49;54.92;93353.42;110360;1277;22483;-76
2023/12/22 12:02:25;;;;;;;;;;;;;;;5.03;56.61;93351.50;110341;1277;22371;-77
2023/12/22 12:04:57;;;;;;;;;;;;;;;4.71;57.79;93353.79;110343;1277;22358;-78
2023/12/22 12:07:41;;;;;;;;;;;;;;;4.48;58.12;93353.82;110316;1277;22213;-75
2023/12/22 12:10:10;;;;;;;;;;;;;;;4.11;58.80;93357.71;110348;1277;22275;-76
2023/12/22 12:12:38;;;;;;;;;;;;;;;3.89;59.75;93357.29;110349;1277;22393;-76
2023/12/22 12:15:12;;;;;;;;;;;;;;;3.63;59.89;93357.16;110319;1277;23100;-76
2023/12/22 12:17:43;;;;;;;;;;;;;;;3.42;60.63;93366.27;110352;1277;22259;-76
2023/12/22 12:20:11;;;;;;;;;;;;;;;3.24;61.73;93371.62;110349;1277;22196;-76
2023/12/22 12:22:42;;;;;;;;;;;;;;;3.12;62.14;93368.83;110353;1277;22330;-77
2023/12/22 12:25:11;;;;;;;;;;;;;;;3.00;62.37;93371.37;110378;1261;22274;-77
2023/12/22 12:28:06;;;;;;;;;;;;;;;2.86;63.23;93366.16;110347;1277;22179;-77
2023/12/22 12:30:35;;;;;;;;;;;;;;;2.68;64.57;93368.52;110321;1277;23124;-76
2023/12/22 12:33:10;;;;;;;;;;;;;;;2.59;65.01;93367.31;110328;1277;22366;-77
2023/12/22 12:35:39;;;;;;;;;;;;;;;2.52;65.23;93368.21;110319;1277;22175;-76
2023/12/22 12:38:13;;;;;;;;;;;;;;;2.45;65.42;93375.47;110345;1277;22266;-77
2023/12/22 12:40:45;;;;;;;;;;;;;;;2.41;65.71;93388.41;110353;1277;22399;-76
2023/12/22 12:43:13;;;;;;;;;;;;;;;2.36;66.39;93389.20;110345;1277;23094;-76
2023/12/22 12:45:41;;;;;;;;;;;;;;;2.34;66.01;93389.95;110340;1277;22406;-76
2023/12/22 12:48:09;;;;;;;;;;;;;;;2.33;66.01;93383.92;110308;1277;22337;-77
2023/12/22 12:50:38;;;;;;;;;;;;;;;2.34;65.59;93389.63;110326;1277;23532;-76
2023/12/22 12:53:07;;;;;;;;;;;;;;;2.35;65.30;93385.77;110346;1277;23163;-76
2023/12/22 12:55:35;;;;;;;;;;;;;;;2.31;65.06;93386.73;110361;1277;22367;-76